Aviation Digital Data Service (ADDS)

Output produced by METARs form (0428 UTC 24 January 2019)
found at http://www.aviationweather.gov/metar/data/
 
Forecast for: ZKPY (PYONGYANG/SUNAN , CN)
Text: TAF ZKPY 232000Z 2400/2424 34004MPS CAVOK TX02/2405Z TNM07/2422Z
Forecast period: 0000 UTC 24 January 2019 to 0000 UTC 25 January 2019
Forecast type: FROM: standard forecast or significant change
Winds: from the NNW (340 degrees) at 9 MPH (8 knots; 4.1 m/s)
Visibility: 6 or more miles 10+ km)
Ceiling: unknown
Clouds: missing
Weather: no significant weather forecast for this period